sensor_id;sensor_type;location;lat;lon;timestamp;temperature;humidity
58469;DHT22;44257;44.804;10.220;2024-01-30T00:01:27;-2.30;99.90
58469;DHT22;44257;44.804;10.220;2024-01-30T00:03:53;-2.30;99.90
58469;DHT22;44257;44.804;10.220;2024-01-30T00:06:19;-2.30;99.90
58469;DHT22;44257;44.804;10.220;2024-01-30T00:08:49;-2.30;99.90
58469;DHT22;44257;44.804;10.220;2024-01-30T00:11:16;-2.40;99.90
58469;DHT22;44257;44.804;10.220;2024-01-30T00:13:42;-2.20;99.90
58469;DHT22;44257;44.804;10.220;2024-01-30T00:16:07;-2.10;99.90
58469;DHT22;44257;44.804;10.220;2024-01-30T00:18:35;-2.10;99.90
58469;DHT22;44257;44.804;10.220;2024-01-30T00:21:01;-2.00;99.90
58469;DHT22;44257;44.804;10.220;2024-01-30T00:23:27;-2.00;99.90
58469;DHT22;44257;44.804;10.220;2024-01-30T00:25:52;-2.00;99.90
58469;DHT22;44257;44.804;10.220;2024-01-30T00:28:18;-2.10;99.90
58469;DHT22;44257;44.804;10.220;2024-01-30T00:30:44;-2.10;99.90
58469;DHT22;44257;44.804;10.220;2024-01-30T00:33:10;-2.10;99.90
58469;DHT22;44257;44.804;10.220;2024-01-30T00:35:36;-2.10;99.90
58469;DHT22;44257;44.804;10.220;2024-01-30T00:38:02;-2.20;99.90
58469;DHT22;44257;44.804;10.220;2024-01-30T00:40:27;-2.20;99.90
58469;DHT22;44257;44.804;10.220;2024-01-30T00:42:53;-2.30;99.90
58469;DHT22;44257;44.804;10.220;2024-01-30T00:45:19;-2.30;99.90
58469;DHT22;44257;44.804;10.220;2024-01-30T00:47:45;-2.40;99.90
58469;DHT22;44257;44.804;10.220;2024-01-30T00:50:11;-2.40;99.90
58469;DHT22;44257;44.804;10.220;2024-01-30T00:52:37;-2.50;99.90
58469;DHT22;44257;44.804;10.220;2024-01-30T00:55:05;-2.50;99.90
58469;DHT22;44257;44.804;10.220;2024-01-30T00:57:31;-2.50;99.90
58469;DHT22;44257;44.804;10.220;2024-01-30T00:59:57;-2.60;99.90
58469;DHT22;44257;44.804;10.220;2024-01-30T01:02:23;-2.60;99.90
58469;DHT22;44257;44.804;10.220;2024-01-30T01:04:49;-2.60;99.90
58469;DHT22;44257;44.804;10.220;2024-01-30T01:07:15;-2.70;99.90
58469;DHT22;44257;44.804;10.220;2024-01-30T01:09:41;-2.70;99.90
58469;DHT22;44257;44.804;10.220;2024-01-30T01:12:07;-2.80;99.90
58469;DHT22;44257;44.804;10.220;2024-01-30T01:14:33;-2.80;99.90
58469;DHT22;44257;44.804;10.220;2024-01-30T01:16:58;-2.80;99.90
58469;DHT22;44257;44.804;10.220;2024-01-30T01:19:24;-2.80;99.90
58469;DHT22;44257;44.804;10.220;2024-01-30T01:21:50;-2.90;99.90
58469;DHT22;44257;44.804;10.220;2024-01-30T01:24:16;-3.00;99.90
58469;DHT22;44257;44.804;10.220;2024-01-30T01:26:41;-3.00;99.90
58469;DHT22;44257;44.804;10.220;2024-01-30T01:29:07;-3.10;99.90
58469;DHT22;44257;44.804;10.220;2024-01-30T01:31:38;-3.10;99.90
58469;DHT22;44257;44.804;10.220;2024-01-30T01:34:10;-3.20;99.90
58469;DHT22;44257;44.804;10.220;2024-01-30T01:36:36;-3.20;99.90
58469;DHT22;44257;44.804;10.220;2024-01-30T01:39:02;-3.10;99.90
58469;DHT22;44257;44.804;10.220;2024-01-30T01:41:35;-3.00;99.90
58469;DHT22;44257;44.804;10.220;2024-01-30T01:44:01;-2.80;99.90
58469;DHT22;44257;44.804;10.220;2024-01-30T01:46:27;-2.70;99.90
58469;DHT22;44257;44.804;10.220;2024-01-30T01:48:55;-2.80;99.90
58469;DHT22;44257;44.804;10.220;2024-01-30T01:51:23;-2.80;99.90
58469;DHT22;44257;44.804;10.220;2024-01-30T01:53:50;-2.80;99.90
58469;DHT22;44257;44.804;10.220;2024-01-30T01:56:16;-2.90;99.90
58469;DHT22;44257;44.804;10.220;2024-01-30T01:58:44;-2.90;99.90
58469;DHT22;44257;44.804;10.220;2024-01-30T02:01:11;-3.00;99.90
58469;DHT22;44257;44.804;10.220;2024-01-30T02:03:38;-2.90;99.90
58469;DHT22;44257;44.804;10.220;2024-01-30T02:06:04;-2.80;99.90
58469;DHT22;44257;44.804;10.220;2024-01-30T02:08:30;-2.70;99.90
58469;DHT22;44257;44.804;10.220;2024-01-30T02:10:56;-2.50;99.90
58469;DHT22;44257;44.804;10.220;2024-01-30T02:13:22;-2.40;99.90
58469;DHT22;44257;44.804;10.220;2024-01-30T02:15:51;-2.40;99.90
58469;DHT22;44257;44.804;10.220;2024-01-30T02:18:18;-2.40;99.90
58469;DHT22;44257;44.804;10.220;2024-01-30T02:20:44;-2.40;99.90
58469;DHT22;44257;44.804;10.220;2024-01-30T02:23:12;-2.40;99.90
58469;DHT22;44257;44.804;10.220;2024-01-30T02:25:42;-2.50;99.90
58469;DHT22;44257;44.804;10.220;2024-01-30T02:28:10;-2.50;99.90
58469;DHT22;44257;44.804;10.220;2024-01-30T02:30:36;-2.50;99.90
58469;DHT22;44257;44.804;10.220;2024-01-30T02:33:02;-2.50;99.90
58469;DHT22;44257;44.804;10.220;2024-01-30T02:35:28;-2.50;99.90
58469;DHT22;44257;44.804;10.220;2024-01-30T02:37:53;-2.50;99.90
58469;DHT22;44257;44.804;10.220;2024-01-30T02:40:19;-2.50;99.90
58469;DHT22;44257;44.804;10.220;2024-01-30T02:42:45;-2.50;99.90
58469;DHT22;44257;44.804;10.220;2024-01-30T02:45:11;-2.50;99.90
58469;DHT22;44257;44.804;10.220;2024-01-30T02:47:38;-2.50;99.90
58469;DHT22;44257;44.804;10.220;2024-01-30T02:50:04;-2.60;99.90
58469;DHT22;44257;44.804;10.220;2024-01-30T02:52:30;-2.60;99.90
58469;DHT22;44257;44.804;10.220;2024-01-30T02:54:56;-2.70;99.90
58469;DHT22;44257;44.804;10.220;2024-01-30T02:57:22;-2.60;99.90
58469;DHT22;44257;44.804;10.220;2024-01-30T02:59:48;-2.70;99.90
58469;DHT22;44257;44.804;10.220;2024-01-30T03:02:14;-2.80;99.90
58469;DHT22;44257;44.804;10.220;2024-01-30T03:04:43;-2.90;99.90
58469;DHT22;44257;44.804;10.220;2024-01-30T03:07:09;-3.00;99.90
58469;DHT22;44257;44.804;10.220;2024-01-30T03:09:36;-3.00;99.90
58469;DHT22;44257;44.804;10.220;2024-01-30T03:12:02;-3.10;99.90
58469;DHT22;44257;44.804;10.220;2024-01-30T03:14:29;-3.20;99.90
58469;DHT22;44257;44.804;10.220;2024-01-30T03:16:55;-3.20;99.90
58469;DHT22;44257;44.804;10.220;2024-01-30T03:19:21;-3.20;99.90
58469;DHT22;44257;44.804;10.220;2024-01-30T03:21:47;-3.20;99.90
58469;DHT22;44257;44.804;10.220;2024-01-30T03:24:12;-3.20;99.90
58469;DHT22;44257;44.804;10.220;2024-01-30T03:26:38;-3.20;99.90
58469;DHT22;44257;44.804;10.220;2024-01-30T03:29:04;-3.20;99.90
58469;DHT22;44257;44.804;10.220;2024-01-30T03:31:30;-3.30;99.90
58469;DHT22;44257;44.804;10.220;2024-01-30T03:33:56;-3.30;99.90
58469;DHT22;44257;44.804;10.220;2024-01-30T03:36:21;-3.30;99.90
58469;DHT22;44257;44.804;10.220;2024-01-30T03:38:47;-3.30;99.90
58469;DHT22;44257;44.804;10.220;2024-01-30T03:41:13;-3.30;99.90
58469;DHT22;44257;44.804;10.220;2024-01-30T03:43:39;-3.30;99.90
58469;DHT22;44257;44.804;10.220;2024-01-30T03:46:05;-3.40;99.90
58469;DHT22;44257;44.804;10.220;2024-01-30T03:48:31;-3.40;99.90
58469;DHT22;44257;44.804;10.220;2024-01-30T03:50:57;-3.40;99.90
58469;DHT22;44257;44.804;10.220;2024-01-30T03:53:23;-3.40;99.90
58469;DHT22;44257;44.804;10.220;2024-01-30T03:55:49;-3.40;99.90
58469;DHT22;44257;44.804;10.220;2024-01-30T03:58:14;-3.40;99.90
58469;DHT22;44257;44.804;10.220;2024-01-30T04:00:40;-3.40;99.90
58469;DHT22;44257;44.804;10.220;2024-01-30T04:03:06;-3.40;99.90
58469;DHT22;44257;44.804;10.220;2024-01-30T04:05:32;-3.40;99.90
58469;DHT22;44257;44.804;10.220;2024-01-30T04:07:58;-3.50;99.90
58469;DHT22;44257;44.804;10.220;2024-01-30T04:10:24;-3.50;99.90
58469;DHT22;44257;44.804;10.220;2024-01-30T04:12:51;-3.50;99.90
58469;DHT22;44257;44.804;10.220;2024-01-30T04:15:17;-3.50;99.90
58469;DHT22;44257;44.804;10.220;2024-01-30T04:17:44;-3.60;99.90
58469;DHT22;44257;44.804;10.220;2024-01-30T04:20:14;-3.60;99.90
58469;DHT22;44257;44.804;10.220;2024-01-30T04:22:42;-3.60;99.90
58469;DHT22;44257;44.804;10.220;2024-01-30T04:25:08;-3.50;99.90
58469;DHT22;44257;44.804;10.220;2024-01-30T04:27:34;-3.50;99.90
58469;DHT22;44257;44.804;10.220;2024-01-30T04:30:00;-3.50;99.90
58469;DHT22;44257;44.804;10.220;2024-01-30T04:32:26;-3.60;99.90
58469;DHT22;44257;44.804;10.220;2024-01-30T04:34:51;-3.50;99.90
58469;DHT22;44257;44.804;10.220;2024-01-30T04:37:17;-3.60;99.90
58469;DHT22;44257;44.804;10.220;2024-01-30T04:39:43;-3.70;99.90
58469;DHT22;44257;44.804;10.220;2024-01-30T04:42:09;-3.70;99.90
58469;DHT22;44257;44.804;10.220;2024-01-30T04:44:35;-3.70;99.90
58469;DHT22;44257;44.804;10.220;2024-01-30T04:47:01;-3.70;99.90
58469;DHT22;44257;44.804;10.220;2024-01-30T04:49:27;-3.70;99.90
58469;DHT22;44257;44.804;10.220;2024-01-30T04:51:54;-3.70;99.90
58469;DHT22;44257;44.804;10.220;2024-01-30T04:54:21;-3.70;99.90
58469;DHT22;44257;44.804;10.220;2024-01-30T04:56:46;-3.70;99.90
58469;DHT22;44257;44.804;10.220;2024-01-30T04:59:12;-3.70;99.90
58469;DHT22;44257;44.804;10.220;2024-01-30T05:01:38;-3.80;99.90
58469;DHT22;44257;44.804;10.220;2024-01-30T05:04:04;-3.80;99.90
58469;DHT22;44257;44.804;10.220;2024-01-30T05:06:32;-3.90;99.90
58469;DHT22;44257;44.804;10.220;2024-01-30T05:08:58;-3.90;99.90
58469;DHT22;44257;44.804;10.220;2024-01-30T05:11:24;-3.90;99.90
58469;DHT22;44257;44.804;10.220;2024-01-30T05:13:50;-4.00;99.90
58469;DHT22;44257;44.804;10.220;2024-01-30T05:16:16;-4.00;99.90
58469;DHT22;44257;44.804;10.220;2024-01-30T05:18:41;-4.00;99.90
58469;DHT22;44257;44.804;10.220;2024-01-30T05:21:07;-4.00;99.90
58469;DHT22;44257;44.804;10.220;2024-01-30T05:23:33;-4.00;99.90
58469;DHT22;44257;44.804;10.220;2024-01-30T05:25:59;-3.90;99.90
58469;DHT22;44257;44.804;10.220;2024-01-30T05:28:26;-3.80;99.90
58469;DHT22;44257;44.804;10.220;2024-01-30T05:30:52;-3.90;99.90
58469;DHT22;44257;44.804;10.220;2024-01-30T05:33:18;-4.00;99.90
58469;DHT22;44257;44.804;10.220;2024-01-30T05:35:44;-4.00;99.90
58469;DHT22;44257;44.804;10.220;2024-01-30T05:38:10;-4.00;99.90
58469;DHT22;44257;44.804;10.220;2024-01-30T05:40:36;-4.00;99.90
58469;DHT22;44257;44.804;10.220;2024-01-30T05:43:02;-4.10;99.90
58469;DHT22;44257;44.804;10.220;2024-01-30T05:45:28;-4.20;99.90
58469;DHT22;44257;44.804;10.220;2024-01-30T05:47:54;-4.20;99.90
58469;DHT22;44257;44.804;10.220;2024-01-30T05:50:20;-4.20;99.90
58469;DHT22;44257;44.804;10.220;2024-01-30T05:52:48;-4.20;99.90
58469;DHT22;44257;44.804;10.220;2024-01-30T05:55:14;-4.20;99.90
58469;DHT22;44257;44.804;10.220;2024-01-30T05:57:40;-4.20;99.90
58469;DHT22;44257;44.804;10.220;2024-01-30T06:00:07;-4.20;99.90
58469;DHT22;44257;44.804;10.220;2024-01-30T06:02:33;-4.20;99.90
58469;DHT22;44257;44.804;10.220;2024-01-30T06:04:59;-4.30;99.90
58469;DHT22;44257;44.804;10.220;2024-01-30T06:07:24;-4.30;99.90
58469;DHT22;44257;44.804;10.220;2024-01-30T06:09:50;-4.30;99.90
58469;DHT22;44257;44.804;10.220;2024-01-30T06:12:16;-4.30;99.90
58469;DHT22;44257;44.804;10.220;2024-01-30T06:14:42;-4.30;99.90
58469;DHT22;44257;44.804;10.220;2024-01-30T06:17:08;-4.30;99.90
58469;DHT22;44257;44.804;10.220;2024-01-30T06:19:34;-4.20;99.90
58469;DHT22;44257;44.804;10.220;2024-01-30T06:22:00;-4.20;99.90
58469;DHT22;44257;44.804;10.220;2024-01-30T06:24:26;-4.20;99.90
58469;DHT22;44257;44.804;10.220;2024-01-30T06:26:53;-4.20;99.90
58469;DHT22;44257;44.804;10.220;2024-01-30T06:29:19;-4.20;99.90
58469;DHT22;44257;44.804;10.220;2024-01-30T06:31:45;-4.30;99.90
58469;DHT22;44257;44.804;10.220;2024-01-30T06:34:11;-4.30;99.90
58469;DHT22;44257;44.804;10.220;2024-01-30T06:36:38;-4.40;99.90
58469;DHT22;44257;44.804;10.220;2024-01-30T06:39:04;-4.40;99.90
58469;DHT22;44257;44.804;10.220;2024-01-30T06:41:30;-4.40;99.90
58469;DHT22;44257;44.804;10.220;2024-01-30T06:43:56;-4.30;99.90
58469;DHT22;44257;44.804;10.220;2024-01-30T06:46:22;-4.30;99.90
58469;DHT22;44257;44.804;10.220;2024-01-30T06:48:48;-4.30;99.90
58469;DHT22;44257;44.804;10.220;2024-01-30T06:51:14;-4.30;99.90
58469;DHT22;44257;44.804;10.220;2024-01-30T06:53:39;-4.30;99.90
58469;DHT22;44257;44.804;10.220;2024-01-30T06:56:06;-4.30;99.90
58469;DHT22;44257;44.804;10.220;2024-01-30T06:58:31;-4.20;99.90
58469;DHT22;44257;44.804;10.220;2024-01-30T07:00:58;-4.10;99.90
58469;DHT22;44257;44.804;10.220;2024-01-30T07:03:24;-4.10;99.90
58469;DHT22;44257;44.804;10.220;2024-01-30T07:05:50;-4.10;99.90
58469;DHT22;44257;44.804;10.220;2024-01-30T07:08:16;-4.10;99.90
58469;DHT22;44257;44.804;10.220;2024-01-30T07:10:43;-4.10;99.90
58469;DHT22;44257;44.804;10.220;2024-01-30T07:13:12;-3.90;99.90
58469;DHT22;44257;44.804;10.220;2024-01-30T07:15:39;-3.80;99.90
58469;DHT22;44257;44.804;10.220;2024-01-30T07:18:05;-3.70;99.90
58469;DHT22;44257;44.804;10.220;2024-01-30T07:20:31;-3.70;99.90
58469;DHT22;44257;44.804;10.220;2024-01-30T07:23:00;-3.60;99.90
58469;DHT22;44257;44.804;10.220;2024-01-30T07:25:26;-3.50;99.90
58469;DHT22;44257;44.804;10.220;2024-01-30T07:27:53;-3.40;99.90
58469;DHT22;44257;44.804;10.220;2024-01-30T07:30:19;-3.30;99.90
58469;DHT22;44257;44.804;10.220;2024-01-30T07:32:46;-3.10;99.90
58469;DHT22;44257;44.804;10.220;2024-01-30T07:35:13;-2.90;99.90
58469;DHT22;44257;44.804;10.220;2024-01-30T07:37:39;-2.70;99.90
58469;DHT22;44257;44.804;10.220;2024-01-30T07:40:05;-2.60;99.90
58469;DHT22;44257;44.804;10.220;2024-01-30T07:42:32;-2.50;99.90
58469;DHT22;44257;44.804;10.220;2024-01-30T07:44:59;-2.40;99.90
58469;DHT22;44257;44.804;10.220;2024-01-30T07:47:24;-2.40;99.90
58469;DHT22;44257;44.804;10.220;2024-01-30T07:49:50;-2.30;99.90
58469;DHT22;44257;44.804;10.220;2024-01-30T07:52:17;-2.30;99.90
58469;DHT22;44257;44.804;10.220;2024-01-30T07:54:42;-2.30;99.90
58469;DHT22;44257;44.804;10.220;2024-01-30T07:57:08;-2.20;99.90
58469;DHT22;44257;44.804;10.220;2024-01-30T07:59:34;-2.20;99.90
58469;DHT22;44257;44.804;10.220;2024-01-30T08:02:00;-2.20;99.90
58469;DHT22;44257;44.804;10.220;2024-01-30T08:04:26;-2.10;99.90
58469;DHT22;44257;44.804;10.220;2024-01-30T08:06:51;-2.10;99.90
58469;DHT22;44257;44.804;10.220;2024-01-30T08:09:17;-2.00;99.90
58469;DHT22;44257;44.804;10.220;2024-01-30T08:11:43;-2.00;99.90
58469;DHT22;44257;44.804;10.220;2024-01-30T08:14:09;-1.90;99.90
58469;DHT22;44257;44.804;10.220;2024-01-30T08:16:35;-1.80;99.90
58469;DHT22;44257;44.804;10.220;2024-01-30T08:19:01;-1.70;99.90
58469;DHT22;44257;44.804;10.220;2024-01-30T08:21:26;-1.60;99.90
58469;DHT22;44257;44.804;10.220;2024-01-30T08:23:52;-1.60;99.90
58469;DHT22;44257;44.804;10.220;2024-01-30T08:26:18;-1.50;99.90
58469;DHT22;44257;44.804;10.220;2024-01-30T08:28:44;-1.40;99.90
58469;DHT22;44257;44.804;10.220;2024-01-30T08:31:13;-1.40;99.90
58469;DHT22;44257;44.804;10.220;2024-01-30T08:33:38;-1.30;99.90
58469;DHT22;44257;44.804;10.220;2024-01-30T08:36:04;-1.20;99.90
58469;DHT22;44257;44.804;10.220;2024-01-30T08:38:30;-1.10;99.90
58469;DHT22;44257;44.804;10.220;2024-01-30T08:40:56;-1.10;99.90
58469;DHT22;44257;44.804;10.220;2024-01-30T08:43:22;-1.00;99.90
58469;DHT22;44257;44.804;10.220;2024-01-30T08:45:48;-0.80;99.90
58469;DHT22;44257;44.804;10.220;2024-01-30T08:48:13;-0.70;99.90
58469;DHT22;44257;44.804;10.220;2024-01-30T08:50:39;-0.60;99.90
58469;DHT22;44257;44.804;10.220;2024-01-30T08:53:05;-0.50;99.90
58469;DHT22;44257;44.804;10.220;2024-01-30T08:55:31;-0.40;99.90
58469;DHT22;44257;44.804;10.220;2024-01-30T08:57:57;-0.30;99.90
58469;DHT22;44257;44.804;10.220;2024-01-30T09:00:23;-0.20;99.90
58469;DHT22;44257;44.804;10.220;2024-01-30T09:02:48;-0.10;99.90
58469;DHT22;44257;44.804;10.220;2024-01-30T09:05:14;0.00;99.90
58469;DHT22;44257;44.804;10.220;2024-01-30T09:07:40;0.00;99.90
58469;DHT22;44257;44.804;10.220;2024-01-30T09:10:06;0.10;99.90
58469;DHT22;44257;44.804;10.220;2024-01-30T09:12:32;0.20;99.90
58469;DHT22;44257;44.804;10.220;2024-01-30T09:14:58;0.30;99.90
58469;DHT22;44257;44.804;10.220;2024-01-30T09:17:25;0.40;99.90
58469;DHT22;44257;44.804;10.220;2024-01-30T09:19:51;0.50;99.90
58469;DHT22;44257;44.804;10.220;2024-01-30T09:22:16;0.50;99.90
58469;DHT22;44257;44.804;10.220;2024-01-30T09:24:43;0.70;99.90
58469;DHT22;44257;44.804;10.220;2024-01-30T09:27:09;0.80;99.90
58469;DHT22;44257;44.804;10.220;2024-01-30T09:29:35;0.80;99.90
58469;DHT22;44257;44.804;10.220;2024-01-30T09:32:02;0.80;99.90
58469;DHT22;44257;44.804;10.220;2024-01-30T09:34:28;0.90;99.90
58469;DHT22;44257;44.804;10.220;2024-01-30T09:36:53;0.90;99.90
58469;DHT22;44257;44.804;10.220;2024-01-30T09:39:19;1.00;99.90
58469;DHT22;44257;44.804;10.220;2024-01-30T09:42:03;1.10;99.90
58469;DHT22;44257;44.804;10.220;2024-01-30T09:44:30;1.20;99.90
58469;DHT22;44257;44.804;10.220;2024-01-30T09:46:57;1.20;99.90
58469;DHT22;44257;44.804;10.220;2024-01-30T09:49:32;1.30;99.90
58469;DHT22;44257;44.804;10.220;2024-01-30T09:52:00;1.30;99.90
58469;DHT22;44257;44.804;10.220;2024-01-30T09:54:26;1.30;99.90
58469;DHT22;44257;44.804;10.220;2024-01-30T09:56:51;1.40;99.90
58469;DHT22;44257;44.804;10.220;2024-01-30T09:59:19;1.50;99.90
58469;DHT22;44257;44.804;10.220;2024-01-30T10:01:45;1.60;99.90
58469;DHT22;44257;44.804;10.220;2024-01-30T10:04:11;1.70;99.90
58469;DHT22;44257;44.804;10.220;2024-01-30T10:06:37;1.80;99.90
58469;DHT22;44257;44.804;10.220;2024-01-30T10:09:03;1.90;99.90
58469;DHT22;44257;44.804;10.220;2024-01-30T10:11:30;2.00;99.90
58469;DHT22;44257;44.804;10.220;2024-01-30T10:13:56;2.10;99.90
58469;DHT22;44257;44.804;10.220;2024-01-30T10:16:22;2.20;99.90
58469;DHT22;44257;44.804;10.220;2024-01-30T10:18:48;2.30;99.90
58469;DHT22;44257;44.804;10.220;2024-01-30T10:21:13;2.40;99.90
58469;DHT22;44257;44.804;10.220;2024-01-30T10:23:39;2.40;99.90
58469;DHT22;44257;44.804;10.220;2024-01-30T10:26:07;2.50;99.90
58469;DHT22;44257;44.804;10.220;2024-01-30T10:28:33;2.60;99.90
58469;DHT22;44257;44.804;10.220;2024-01-30T10:30:59;2.70;99.90
58469;DHT22;44257;44.804;10.220;2024-01-30T10:33:29;2.70;99.90
58469;DHT22;44257;44.804;10.220;2024-01-30T10:36:05;2.70;99.90
58469;DHT22;44257;44.804;10.220;2024-01-30T10:38:32;2.70;99.90
58469;DHT22;44257;44.804;10.220;2024-01-30T10:40:59;2.80;99.90
58469;DHT22;44257;44.804;10.220;2024-01-30T10:43:32;2.90;99.90
58469;DHT22;44257;44.804;10.220;2024-01-30T10:46:10;2.90;99.90
58469;DHT22;44257;44.804;10.220;2024-01-30T10:48:42;3.00;99.90
58469;DHT22;44257;44.804;10.220;2024-01-30T10:51:11;3.00;99.90
58469;DHT22;44257;44.804;10.220;2024-01-30T10:53:38;3.10;99.90
58469;DHT22;44257;44.804;10.220;2024-01-30T10:56:05;3.10;99.90
58469;DHT22;44257;44.804;10.220;2024-01-30T10:58:31;3.20;99.90
58469;DHT22;44257;44.804;10.220;2024-01-30T11:00:58;3.20;99.90
58469;DHT22;44257;44.804;10.220;2024-01-30T11:03:24;3.30;99.90
58469;DHT22;44257;44.804;10.220;2024-01-30T11:05:51;3.30;99.90
58469;DHT22;44257;44.804;10.220;2024-01-30T11:08:26;3.50;99.90
58469;DHT22;44257;44.804;10.220;2024-01-30T11:10:58;3.60;99.90
58469;DHT22;44257;44.804;10.220;2024-01-30T11:13:31;3.60;99.90
58469;DHT22;44257;44.804;10.220;2024-01-30T11:16:04;3.70;99.90
58469;DHT22;44257;44.804;10.220;2024-01-30T11:18:32;3.80;99.90
58469;DHT22;44257;44.804;10.220;2024-01-30T11:20:59;3.90;99.90
58469;DHT22;44257;44.804;10.220;2024-01-30T11:23:28;4.00;99.90
58469;DHT22;44257;44.804;10.220;2024-01-30T11:25:54;4.10;99.90
58469;DHT22;44257;44.804;10.220;2024-01-30T11:28:23;4.30;99.90
58469;DHT22;44257;44.804;10.220;2024-01-30T11:30:49;4.40;99.90
58469;DHT22;44257;44.804;10.220;2024-01-30T11:33:30;4.50;99.90
58469;DHT22;44257;44.804;10.220;2024-01-30T11:36:00;4.60;99.90
58469;DHT22;44257;44.804;10.220;2024-01-30T11:38:27;4.70;99.90
58469;DHT22;44257;44.804;10.220;2024-01-30T11:40:54;4.80;99.90
58469;DHT22;44257;44.804;10.220;2024-01-30T11:43:24;4.90;99.90
58469;DHT22;44257;44.804;10.220;2024-01-30T11:45:50;4.90;99.90
58469;DHT22;44257;44.804;10.220;2024-01-30T11:48:16;5.00;99.90
58469;DHT22;44257;44.804;10.220;2024-01-30T11:50:43;5.00;99.90
58469;DHT22;44257;44.804;10.220;2024-01-30T11:53:10;5.00;99.90
58469;DHT22;44257;44.804;10.220;2024-01-30T11:55:36;5.00;99.90
58469;DHT22;44257;44.804;10.220;2024-01-30T11:58:03;5.10;99.90
58469;DHT22;44257;44.804;10.220;2024-01-30T12:00:32;5.10;99.90
58469;DHT22;44257;44.804;10.220;2024-01-30T12:02:59;5.20;99.90
58469;DHT22;44257;44.804;10.220;2024-01-30T12:05:26;5.20;99.90
58469;DHT22;44257;44.804;10.220;2024-01-30T12:07:52;5.30;99.90
58469;DHT22;44257;44.804;10.220;2024-01-30T12:10:19;5.20;99.90
58469;DHT22;44257;44.804;10.220;2024-01-30T12:12:49;5.30;99.90
58469;DHT22;44257;44.804;10.220;2024-01-30T12:15:16;5.40;99.90
58469;DHT22;44257;44.804;10.220;2024-01-30T12:17:42;5.50;99.90
58469;DHT22;44257;44.804;10.220;2024-01-30T12:20:17;5.50;99.90
58469;DHT22;44257;44.804;10.220;2024-01-30T12:22:44;5.60;99.90
58469;DHT22;44257;44.804;10.220;2024-01-30T12:25:13;5.60;99.90
58469;DHT22;44257;44.804;10.220;2024-01-30T12:27:42;5.60;99.90
58469;DHT22;44257;44.804;10.220;2024-01-30T12:30:10;5.70;99.90
58469;DHT22;44257;44.804;10.220;2024-01-30T12:32:38;5.70;99.90
58469;DHT22;44257;44.804;10.220;2024-01-30T12:35:13;5.70;99.90
58469;DHT22;44257;44.804;10.220;2024-01-30T12:37:40;5.80;99.90
58469;DHT22;44257;44.804;10.220;2024-01-30T12:40:09;5.80;99.90
58469;DHT22;44257;44.804;10.220;2024-01-30T12:42:36;5.90;99.90
58469;DHT22;44257;44.804;10.220;2024-01-30T12:45:03;6.00;99.90
58469;DHT22;44257;44.804;10.220;2024-01-30T12:47:30;6.10;99.90
58469;DHT22;44257;44.804;10.220;2024-01-30T12:49:56;6.30;99.90
58469;DHT22;44257;44.804;10.220;2024-01-30T12:52:22;6.30;99.90
58469;DHT22;44257;44.804;10.220;2024-01-30T12:54:49;6.30;99.90
58469;DHT22;44257;44.804;10.220;2024-01-30T12:57:15;6.40;99.90
58469;DHT22;44257;44.804;10.220;2024-01-30T12:59:42;6.40;99.90
58469;DHT22;44257;44.804;10.220;2024-01-30T13:02:09;6.50;99.90
58469;DHT22;44257;44.804;10.220;2024-01-30T13:04:35;6.60;99.90
58469;DHT22;44257;44.804;10.220;2024-01-30T13:07:01;6.70;99.90
58469;DHT22;44257;44.804;10.220;2024-01-30T13:09:27;6.70;99.90
58469;DHT22;44257;44.804;10.220;2024-01-30T13:11:53;6.70;99.90
58469;DHT22;44257;44.804;10.220;2024-01-30T13:14:19;6.70;99.90
58469;DHT22;44257;44.804;10.220;2024-01-30T13:16:45;6.90;99.90
58469;DHT22;44257;44.804;10.220;2024-01-30T13:19:11;6.90;99.90
58469;DHT22;44257;44.804;10.220;2024-01-30T13:21:37;6.90;99.90
58469;DHT22;44257;44.804;10.220;2024-01-30T13:24:03;7.00;99.90
58469;DHT22;44257;44.804;10.220;2024-01-30T13:26:29;7.10;99.90
58469;DHT22;44257;44.804;10.220;2024-01-30T13:28:56;7.20;99.90
58469;DHT22;44257;44.804;10.220;2024-01-30T13:31:22;7.30;99.90
58469;DHT22;44257;44.804;10.220;2024-01-30T13:33:48;7.30;99.90
58469;DHT22;44257;44.804;10.220;2024-01-30T13:36:14;7.30;99.90
58469;DHT22;44257;44.804;10.220;2024-01-30T13:38:40;7.40;99.90
58469;DHT22;44257;44.804;10.220;2024-01-30T13:41:06;7.40;99.90
58469;DHT22;44257;44.804;10.220;2024-01-30T13:43:32;7.40;99.90
58469;DHT22;44257;44.804;10.220;2024-01-30T13:45:58;7.50;99.90
58469;DHT22;44257;44.804;10.220;2024-01-30T13:48:24;7.60;99.90
58469;DHT22;44257;44.804;10.220;2024-01-30T13:50:50;7.60;99.90
58469;DHT22;44257;44.804;10.220;2024-01-30T13:53:16;7.60;99.90
58469;DHT22;44257;44.804;10.220;2024-01-30T13:55:42;7.50;99.90
58469;DHT22;44257;44.804;10.220;2024-01-30T13:58:07;7.40;99.90
58469;DHT22;44257;44.804;10.220;2024-01-30T14:00:33;7.40;99.90
58469;DHT22;44257;44.804;10.220;2024-01-30T14:02:59;7.50;99.90
58469;DHT22;44257;44.804;10.220;2024-01-30T14:05:26;7.50;99.90
58469;DHT22;44257;44.804;10.220;2024-01-30T14:07:57;7.60;99.90
58469;DHT22;44257;44.804;10.220;2024-01-30T14:10:23;7.70;99.90
58469;DHT22;44257;44.804;10.220;2024-01-30T14:12:49;7.70;99.90
58469;DHT22;44257;44.804;10.220;2024-01-30T14:15:15;7.80;99.90
58469;DHT22;44257;44.804;10.220;2024-01-30T14:17:44;7.90;99.90
58469;DHT22;44257;44.804;10.220;2024-01-30T14:20:15;7.90;99.90
58469;DHT22;44257;44.804;10.220;2024-01-30T14:22:44;8.00;99.90
58469;DHT22;44257;44.804;10.220;2024-01-30T14:25:10;8.10;99.90
58469;DHT22;44257;44.804;10.220;2024-01-30T14:27:36;8.20;99.90
58469;DHT22;44257;44.804;10.220;2024-01-30T14:30:02;8.40;99.90
58469;DHT22;44257;44.804;10.220;2024-01-30T14:32:28;8.50;99.90
58469;DHT22;44257;44.804;10.220;2024-01-30T14:34:54;8.60;99.90
58469;DHT22;44257;44.804;10.220;2024-01-30T14:37:21;8.60;99.90
58469;DHT22;44257;44.804;10.220;2024-01-30T14:39:47;8.60;99.90
58469;DHT22;44257;44.804;10.220;2024-01-30T14:42:14;8.60;99.90
58469;DHT22;44257;44.804;10.220;2024-01-30T14:44:40;8.50;99.90
58469;DHT22;44257;44.804;10.220;2024-01-30T14:47:06;8.40;99.90
58469;DHT22;44257;44.804;10.220;2024-01-30T14:49:33;8.30;99.90
58469;DHT22;44257;44.804;10.220;2024-01-30T14:51:59;8.30;99.90
58469;DHT22;44257;44.804;10.220;2024-01-30T14:54:26;8.30;99.90
58469;DHT22;44257;44.804;10.220;2024-01-30T14:56:53;8.30;99.90
58469;DHT22;44257;44.804;10.220;2024-01-30T14:59:19;8.30;99.90
58469;DHT22;44257;44.804;10.220;2024-01-30T15:01:45;8.20;99.90
58469;DHT22;44257;44.804;10.220;2024-01-30T15:04:11;8.30;99.90
58469;DHT22;44257;44.804;10.220;2024-01-30T15:06:37;8.30;99.90
58469;DHT22;44257;44.804;10.220;2024-01-30T15:09:03;8.30;99.90
58469;DHT22;44257;44.804;10.220;2024-01-30T15:11:29;8.20;99.90
58469;DHT22;44257;44.804;10.220;2024-01-30T15:13:54;8.20;99.90
58469;DHT22;44257;44.804;10.220;2024-01-30T15:16:20;8.20;99.90
58469;DHT22;44257;44.804;10.220;2024-01-30T15:18:46;8.10;99.90